sensor_id;sensor_type;location;lat;lon;timestamp;temperature;humidity
66871;DHT22;53780;44.998;9.926;2023-02-26T00:02:45;13.89;74.57
66871;DHT22;53780;44.998;9.926;2023-02-26T00:05:51;13.87;74.55
66871;DHT22;53780;44.998;9.926;2023-02-26T00:08:55;13.89;74.47
66871;DHT22;53780;44.998;9.926;2023-02-26T00:11:59;13.89;74.51
66871;DHT22;53780;44.998;9.926;2023-02-26T00:15:05;13.86;74.69
66871;DHT22;53780;44.998;9.926;2023-02-26T00:18:13;13.86;74.81
66871;DHT22;53780;44.998;9.926;2023-02-26T00:21:20;13.85;74.80
66871;DHT22;53780;44.998;9.926;2023-02-26T00:24:25;13.85;74.78
66871;DHT22;53780;44.998;9.926;2023-02-26T00:27:29;13.83;75.07
66871;DHT22;53780;44.998;9.926;2023-02-26T00:30:33;13.83;75.56
66871;DHT22;53780;44.998;9.926;2023-02-26T00:33:37;13.83;75.40
66871;DHT22;53780;44.998;9.926;2023-02-26T00:40:39;13.78;74.96
66871;DHT22;53780;44.998;9.926;2023-02-26T00:43:45;13.81;74.87
66871;DHT22;53780;44.998;9.926;2023-02-26T00:47:08;13.82;74.75
66871;DHT22;53780;44.998;9.926;2023-02-26T00:50:20;13.79;74.84
66871;DHT22;53780;44.998;9.926;2023-02-26T00:53:32;13.81;74.86
66871;DHT22;53780;44.998;9.926;2023-02-26T00:56:37;13.81;74.94
66871;DHT22;53780;44.998;9.926;2023-02-26T00:59:40;13.79;75.12
66871;DHT22;53780;44.998;9.926;2023-02-26T01:02:44;13.78;75.12
66871;DHT22;53780;44.998;9.926;2023-02-26T01:05:49;13.78;75.36
66871;DHT22;53780;44.998;9.926;2023-02-26T01:09:23;13.76;75.66
66871;DHT22;53780;44.998;9.926;2023-02-26T01:12:28;13.76;75.78
66871;DHT22;53780;44.998;9.926;2023-02-26T01:15:32;13.72;75.84
66871;DHT22;53780;44.998;9.926;2023-02-26T01:18:47;13.71;76.08
66871;DHT22;53780;44.998;9.926;2023-02-26T01:22:00;13.69;76.05
66871;DHT22;53780;44.998;9.926;2023-02-26T01:25:09;13.64;76.11
66871;DHT22;53780;44.998;9.926;2023-02-26T01:28:14;13.62;75.90
66871;DHT22;53780;44.998;9.926;2023-02-26T01:31:51;13.57;75.97
66871;DHT22;53780;44.998;9.926;2023-02-26T01:35:01;13.53;75.74
66871;DHT22;53780;44.998;9.926;2023-02-26T01:38:48;13.48;75.52
66871;DHT22;53780;44.998;9.926;2023-02-26T01:41:50;13.44;75.51
66871;DHT22;53780;44.998;9.926;2023-02-26T01:44:59;13.37;75.68
66871;DHT22;53780;44.998;9.926;2023-02-26T01:48:06;13.33;75.68
66871;DHT22;53780;44.998;9.926;2023-02-26T01:51:14;13.26;75.96
66871;DHT22;53780;44.998;9.926;2023-02-26T01:54:21;13.23;76.08
66871;DHT22;53780;44.998;9.926;2023-02-26T01:57:25;13.16;75.79
66871;DHT22;53780;44.998;9.926;2023-02-26T02:00:30;13.09;75.73
66871;DHT22;53780;44.998;9.926;2023-02-26T02:03:37;13.00;75.79
66871;DHT22;53780;44.998;9.926;2023-02-26T02:06:43;13.00;75.68
66871;DHT22;53780;44.998;9.926;2023-02-26T02:09:47;12.95;76.02
66871;DHT22;53780;44.998;9.926;2023-02-26T02:16:42;12.86;76.78
66871;DHT22;53780;44.998;9.926;2023-02-26T02:26:39;12.76;76.67
66871;DHT22;53780;44.998;9.926;2023-02-26T02:30:32;12.68;76.59
66871;DHT22;53780;44.998;9.926;2023-02-26T02:33:57;12.59;77.01
66871;DHT22;53780;44.998;9.926;2023-02-26T02:41:01;12.42;78.15
66871;DHT22;53780;44.998;9.926;2023-02-26T02:44:10;12.34;78.38
66871;DHT22;53780;44.998;9.926;2023-02-26T02:47:17;12.37;78.35
66871;DHT22;53780;44.998;9.926;2023-02-26T02:50:31;12.37;78.28
66871;DHT22;53780;44.998;9.926;2023-02-26T02:54:00;12.38;78.29
66871;DHT22;53780;44.998;9.926;2023-02-26T02:57:20;12.41;78.30
66871;DHT22;53780;44.998;9.926;2023-02-26T03:00:27;12.45;78.36
66871;DHT22;53780;44.998;9.926;2023-02-26T03:06:42;12.48;78.56
66871;DHT22;53780;44.998;9.926;2023-02-26T03:09:49;12.48;78.95
66871;DHT22;53780;44.998;9.926;2023-02-26T03:12:53;12.53;78.80
66871;DHT22;53780;44.998;9.926;2023-02-26T03:16:25;12.56;78.84
66871;DHT22;53780;44.998;9.926;2023-02-26T03:23:21;12.53;78.36
66871;DHT22;53780;44.998;9.926;2023-02-26T03:26:40;12.46;78.49
66871;DHT22;53780;44.998;9.926;2023-02-26T03:33:13;12.44;78.80
66871;DHT22;53780;44.998;9.926;2023-02-26T03:36:26;12.42;78.82
66871;DHT22;53780;44.998;9.926;2023-02-26T03:39:56;12.40;79.01
66871;DHT22;53780;44.998;9.926;2023-02-26T03:43:07;12.38;78.65
66871;DHT22;53780;44.998;9.926;2023-02-26T03:46:19;12.40;78.93
66871;DHT22;53780;44.998;9.926;2023-02-26T03:49:38;12.48;78.92
66871;DHT22;53780;44.998;9.926;2023-02-26T03:52:46;12.53;78.99
66871;DHT22;53780;44.998;9.926;2023-02-26T03:56:06;12.41;79.63
66871;DHT22;53780;44.998;9.926;2023-02-26T03:59:31;12.46;79.85
66871;DHT22;53780;44.998;9.926;2023-02-26T04:03:07;12.41;79.91
66871;DHT22;53780;44.998;9.926;2023-02-26T04:06:13;12.38;79.36
66871;DHT22;53780;44.998;9.926;2023-02-26T04:09:17;12.33;78.62
66871;DHT22;53780;44.998;9.926;2023-02-26T04:12:23;12.35;78.30
66871;DHT22;53780;44.998;9.926;2023-02-26T04:15:29;11.79;73.30
66871;DHT22;53780;44.998;9.926;2023-02-26T04:18:33;10.93;75.28
66871;DHT22;53780;44.998;9.926;2023-02-26T04:21:36;10.63;76.44
66871;DHT22;53780;44.998;9.926;2023-02-26T04:24:42;9.95;76.07
66871;DHT22;53780;44.998;9.926;2023-02-26T04:27:46;9.93;74.80
66871;DHT22;53780;44.998;9.926;2023-02-26T04:30:50;9.64;74.71
66871;DHT22;53780;44.998;9.926;2023-02-26T04:33:53;9.38;75.35
66871;DHT22;53780;44.998;9.926;2023-02-26T04:36:58;9.28;74.80
66871;DHT22;53780;44.998;9.926;2023-02-26T04:40:02;9.40;74.50
66871;DHT22;53780;44.998;9.926;2023-02-26T04:43:08;9.22;73.98
66871;DHT22;53780;44.998;9.926;2023-02-26T04:46:17;9.12;74.14
66871;DHT22;53780;44.998;9.926;2023-02-26T04:49:21;8.90;75.56
66871;DHT22;53780;44.998;9.926;2023-02-26T04:52:25;8.98;76.09
66871;DHT22;53780;44.998;9.926;2023-02-26T04:55:29;8.71;77.17
66871;DHT22;53780;44.998;9.926;2023-02-26T04:58:34;8.81;75.83
66871;DHT22;53780;44.998;9.926;2023-02-26T05:01:43;8.59;76.64
66871;DHT22;53780;44.998;9.926;2023-02-26T05:04:47;8.63;75.68
66871;DHT22;53780;44.998;9.926;2023-02-26T05:07:51;8.70;74.26
66871;DHT22;53780;44.998;9.926;2023-02-26T05:10:58;8.70;73.26
66871;DHT22;53780;44.998;9.926;2023-02-26T05:14:01;8.60;72.72
66871;DHT22;53780;44.998;9.926;2023-02-26T05:17:06;8.54;72.35
66871;DHT22;53780;44.998;9.926;2023-02-26T05:20:10;8.66;72.74
66871;DHT22;53780;44.998;9.926;2023-02-26T05:23:15;8.60;71.55
66871;DHT22;53780;44.998;9.926;2023-02-26T05:26:19;8.60;71.63
66871;DHT22;53780;44.998;9.926;2023-02-26T05:29:23;8.46;72.99
66871;DHT22;53780;44.998;9.926;2023-02-26T05:32:27;8.49;72.88
66871;DHT22;53780;44.998;9.926;2023-02-26T05:35:33;8.28;74.36
66871;DHT22;53780;44.998;9.926;2023-02-26T05:38:37;8.16;75.34
66871;DHT22;53780;44.998;9.926;2023-02-26T05:41:41;8.06;75.92
66871;DHT22;53780;44.998;9.926;2023-02-26T05:44:45;8.06;75.96
66871;DHT22;53780;44.998;9.926;2023-02-26T05:47:49;8.11;75.84
66871;DHT22;53780;44.998;9.926;2023-02-26T05:50:53;7.95;76.96
66871;DHT22;53780;44.998;9.926;2023-02-26T05:53:57;7.91;75.69
66871;DHT22;53780;44.998;9.926;2023-02-26T05:57:01;7.81;76.62
66871;DHT22;53780;44.998;9.926;2023-02-26T06:00:06;7.69;77.53
66871;DHT22;53780;44.998;9.926;2023-02-26T06:03:16;7.73;78.63
66871;DHT22;53780;44.998;9.926;2023-02-26T06:06:19;7.67;79.84
66871;DHT22;53780;44.998;9.926;2023-02-26T06:09:24;7.74;78.10
66871;DHT22;53780;44.998;9.926;2023-02-26T06:12:28;7.69;76.19
66871;DHT22;53780;44.998;9.926;2023-02-26T06:15:31;7.59;76.61
66871;DHT22;53780;44.998;9.926;2023-02-26T06:18:35;7.53;76.22
66871;DHT22;53780;44.998;9.926;2023-02-26T06:21:39;7.29;75.45
66871;DHT22;53780;44.998;9.926;2023-02-26T06:24:43;7.28;75.22
66871;DHT22;53780;44.998;9.926;2023-02-26T06:27:47;7.16;74.41
66871;DHT22;53780;44.998;9.926;2023-02-26T06:30:52;6.95;75.31
66871;DHT22;53780;44.998;9.926;2023-02-26T06:33:56;7.09;73.99
66871;DHT22;53780;44.998;9.926;2023-02-26T06:37:00;6.77;74.55
66871;DHT22;53780;44.998;9.926;2023-02-26T06:40:04;6.88;74.44
66871;DHT22;53780;44.998;9.926;2023-02-26T06:43:09;6.67;75.67
66871;DHT22;53780;44.998;9.926;2023-02-26T06:46:13;6.90;75.07
66871;DHT22;53780;44.998;9.926;2023-02-26T06:49:16;6.76;75.62
66871;DHT22;53780;44.998;9.926;2023-02-26T06:52:20;6.88;75.70
66871;DHT22;53780;44.998;9.926;2023-02-26T06:55:25;6.95;75.28
66871;DHT22;53780;44.998;9.926;2023-02-26T06:58:29;6.87;76.46
66871;DHT22;53780;44.998;9.926;2023-02-26T07:01:32;6.87;75.57
66871;DHT22;53780;44.998;9.926;2023-02-26T07:04:37;6.85;73.47
66871;DHT22;53780;44.998;9.926;2023-02-26T07:07:40;6.85;73.65
66871;DHT22;53780;44.998;9.926;2023-02-26T07:10:44;6.88;74.04
66871;DHT22;53780;44.998;9.926;2023-02-26T07:13:52;6.90;73.73
66871;DHT22;53780;44.998;9.926;2023-02-26T07:16:55;6.94;73.01
66871;DHT22;53780;44.998;9.926;2023-02-26T07:20:00;6.87;74.14
66871;DHT22;53780;44.998;9.926;2023-02-26T07:23:09;6.79;73.90
66871;DHT22;53780;44.998;9.926;2023-02-26T07:26:13;6.88;74.86
66871;DHT22;53780;44.998;9.926;2023-02-26T07:29:17;6.92;75.55
66871;DHT22;53780;44.998;9.926;2023-02-26T07:32:21;6.90;76.19
66871;DHT22;53780;44.998;9.926;2023-02-26T07:35:25;6.77;76.17
66871;DHT22;53780;44.998;9.926;2023-02-26T07:38:28;6.69;76.51
66871;DHT22;53780;44.998;9.926;2023-02-26T07:41:32;6.79;76.27
66871;DHT22;53780;44.998;9.926;2023-02-26T07:44:36;6.70;74.21
66871;DHT22;53780;44.998;9.926;2023-02-26T07:47:40;6.62;73.98
66871;DHT22;53780;44.998;9.926;2023-02-26T07:50:44;6.77;72.86
66871;DHT22;53780;44.998;9.926;2023-02-26T07:53:48;6.81;72.41
66871;DHT22;53780;44.998;9.926;2023-02-26T07:56:53;6.77;73.17
66871;DHT22;53780;44.998;9.926;2023-02-26T07:59:56;6.73;71.13
66871;DHT22;53780;44.998;9.926;2023-02-26T08:03:00;6.79;71.21
66871;DHT22;53780;44.998;9.926;2023-02-26T08:06:04;6.91;72.76
66871;DHT22;53780;44.998;9.926;2023-02-26T08:09:08;7.01;74.71
66871;DHT22;53780;44.998;9.926;2023-02-26T08:12:12;7.04;75.57
66871;DHT22;53780;44.998;9.926;2023-02-26T08:15:16;6.90;74.14
66871;DHT22;53780;44.998;9.926;2023-02-26T08:18:19;6.90;74.41
66871;DHT22;53780;44.998;9.926;2023-02-26T08:21:23;6.97;75.78
66871;DHT22;53780;44.998;9.926;2023-02-26T08:24:27;7.07;77.76
66871;DHT22;53780;44.998;9.926;2023-02-26T08:27:31;7.11;77.63
66871;DHT22;53780;44.998;9.926;2023-02-26T08:30:34;7.04;78.44
66871;DHT22;53780;44.998;9.926;2023-02-26T08:33:39;7.01;78.25
66871;DHT22;53780;44.998;9.926;2023-02-26T08:36:43;6.73;78.90
66871;DHT22;53780;44.998;9.926;2023-02-26T08:39:46;6.73;79.18
66871;DHT22;53780;44.998;9.926;2023-02-26T08:42:50;6.92;76.70
66871;DHT22;53780;44.998;9.926;2023-02-26T08:45:55;6.97;76.52
66871;DHT22;53780;44.998;9.926;2023-02-26T08:49:00;6.98;75.66
66871;DHT22;53780;44.998;9.926;2023-02-26T08:52:04;7.04;75.27
66871;DHT22;53780;44.998;9.926;2023-02-26T08:55:08;7.00;74.93
66871;DHT22;53780;44.998;9.926;2023-02-26T08:58:12;7.05;75.11
66871;DHT22;53780;44.998;9.926;2023-02-26T09:01:16;6.98;74.47
66871;DHT22;53780;44.998;9.926;2023-02-26T09:04:20;7.05;74.52
66871;DHT22;53780;44.998;9.926;2023-02-26T09:07:24;6.92;74.71
66871;DHT22;53780;44.998;9.926;2023-02-26T09:10:27;6.85;74.19
66871;DHT22;53780;44.998;9.926;2023-02-26T09:13:31;6.91;74.58
66871;DHT22;53780;44.998;9.926;2023-02-26T09:16:35;6.79;74.31
66871;DHT22;53780;44.998;9.926;2023-02-26T09:19:39;6.87;73.98
66871;DHT22;53780;44.998;9.926;2023-02-26T09:22:43;6.71;74.14
66871;DHT22;53780;44.998;9.926;2023-02-26T09:25:54;6.64;74.76
66871;DHT22;53780;44.998;9.926;2023-02-26T09:28:58;6.63;74.47
66871;DHT22;53780;44.998;9.926;2023-02-26T09:32:02;6.71;74.52
66871;DHT22;53780;44.998;9.926;2023-02-26T09:35:10;6.57;73.57
66871;DHT22;53780;44.998;9.926;2023-02-26T09:38:14;6.47;74.14
66871;DHT22;53780;44.998;9.926;2023-02-26T09:44:29;6.60;74.60
66871;DHT22;53780;44.998;9.926;2023-02-26T09:47:41;6.66;74.54
66871;DHT22;53780;44.998;9.926;2023-02-26T09:50:52;6.67;73.81
66871;DHT22;53780;44.998;9.926;2023-02-26T09:53:56;7.01;72.78
66871;DHT22;53780;44.998;9.926;2023-02-26T09:57:03;6.95;72.64
66871;DHT22;53780;44.998;9.926;2023-02-26T10:07:09;7.08;72.00
66871;DHT22;53780;44.998;9.926;2023-02-26T10:13:42;7.25;71.28
66871;DHT22;53780;44.998;9.926;2023-02-26T10:16:53;7.39;70.14
66871;DHT22;53780;44.998;9.926;2023-02-26T10:20:10;7.26;68.90
66871;DHT22;53780;44.998;9.926;2023-02-26T10:26:41;7.09;69.12
66871;DHT22;53780;44.998;9.926;2023-02-26T10:33:18;7.35;67.65
66871;DHT22;53780;44.998;9.926;2023-02-26T10:36:46;7.43;67.08
66871;DHT22;53780;44.998;9.926;2023-02-26T10:43:41;7.45;65.92
66871;DHT22;53780;44.998;9.926;2023-02-26T10:50:05;7.70;63.54
66871;DHT22;53780;44.998;9.926;2023-02-26T10:53:11;7.84;62.31
66871;DHT22;53780;44.998;9.926;2023-02-26T10:56:27;7.77;63.75
66871;DHT22;53780;44.998;9.926;2023-02-26T10:59:32;7.87;65.64
66871;DHT22;53780;44.998;9.926;2023-02-26T11:02:41;7.71;65.15
66871;DHT22;53780;44.998;9.926;2023-02-26T11:05:46;7.53;65.53
66871;DHT22;53780;44.998;9.926;2023-02-26T11:08:54;7.56;64.14
66871;DHT22;53780;44.998;9.926;2023-02-26T11:15:14;7.66;62.59
66871;DHT22;53780;44.998;9.926;2023-02-26T11:18:24;7.69;62.97
66871;DHT22;53780;44.998;9.926;2023-02-26T11:21:34;7.56;62.86
66871;DHT22;53780;44.998;9.926;2023-02-26T11:24:45;7.52;64.47
66871;DHT22;53780;44.998;9.926;2023-02-26T11:27:55;7.59;63.47
66871;DHT22;53780;44.998;9.926;2023-02-26T11:31:05;7.36;64.33
66871;DHT22;53780;44.998;9.926;2023-02-26T11:34:10;7.18;65.82
66871;DHT22;53780;44.998;9.926;2023-02-26T11:37:20;7.15;65.90
66871;DHT22;53780;44.998;9.926;2023-02-26T11:40:38;7.26;65.33
66871;DHT22;53780;44.998;9.926;2023-02-26T11:43:48;7.29;65.26
66871;DHT22;53780;44.998;9.926;2023-02-26T11:46:57;7.32;64.57
66871;DHT22;53780;44.998;9.926;2023-02-26T11:50:19;7.50;63.25
66871;DHT22;53780;44.998;9.926;2023-02-26T11:53:36;7.49;62.17
66871;DHT22;53780;44.998;9.926;2023-02-26T11:56:41;7.46;60.82
66871;DHT22;53780;44.998;9.926;2023-02-26T11:59:51;7.55;60.60
66871;DHT22;53780;44.998;9.926;2023-02-26T12:03:00;7.62;60.65
66871;DHT22;53780;44.998;9.926;2023-02-26T12:06:15;7.69;57.88
66871;DHT22;53780;44.998;9.926;2023-02-26T12:09:20;7.78;56.76
66871;DHT22;53780;44.998;9.926;2023-02-26T12:16:01;7.85;54.96
66871;DHT22;53780;44.998;9.926;2023-02-26T12:19:19;7.87;65.30
66871;DHT22;53780;44.998;9.926;2023-02-26T12:22:58;7.90;68.56
66871;DHT22;53780;44.998;9.926;2023-02-26T12:50:05;7.59;60.90
66871;DHT22;53780;44.998;9.926;2023-02-26T12:53:18;7.73;60.40
66871;DHT22;53780;44.998;9.926;2023-02-26T13:17:28;7.45;67.86
66871;DHT22;53780;44.998;9.926;2023-02-26T13:20:36;7.66;66.39
66871;DHT22;53780;44.998;9.926;2023-02-26T13:23:55;7.57;65.37
66871;DHT22;53780;44.998;9.926;2023-02-26T13:27:01;7.66;63.92
66871;DHT22;53780;44.998;9.926;2023-02-26T13:30:29;7.49;62.89
66871;DHT22;53780;44.998;9.926;2023-02-26T13:33:33;7.65;63.18
66871;DHT22;53780;44.998;9.926;2023-02-26T13:36:38;7.59;63.63
66871;DHT22;53780;44.998;9.926;2023-02-26T13:47:11;7.77;60.75
66871;DHT22;53780;44.998;9.926;2023-02-26T13:50:34;7.74;60.15
66871;DHT22;53780;44.998;9.926;2023-02-26T13:54:07;7.65;60.73
66871;DHT22;53780;44.998;9.926;2023-02-26T14:00:45;7.71;59.08
66871;DHT22;53780;44.998;9.926;2023-02-26T14:04:00;7.74;59.38
66871;DHT22;53780;44.998;9.926;2023-02-26T14:07:12;7.88;58.32
66871;DHT22;53780;44.998;9.926;2023-02-26T14:10:44;7.85;56.97
66871;DHT22;53780;44.998;9.926;2023-02-26T14:14:16;7.85;57.87
66871;DHT22;53780;44.998;9.926;2023-02-26T14:20:34;7.90;58.19
66871;DHT22;53780;44.998;9.926;2023-02-26T14:23:39;7.84;58.04
66871;DHT22;53780;44.998;9.926;2023-02-26T14:26:46;7.66;59.06
66871;DHT22;53780;44.998;9.926;2023-02-26T14:30:11;7.70;60.18
66871;DHT22;53780;44.998;9.926;2023-02-26T14:33:28;7.91;60.73
66871;DHT22;53780;44.998;9.926;2023-02-26T14:36:45;7.99;60.13
66871;DHT22;53780;44.998;9.926;2023-02-26T14:40:19;7.88;58.14
66871;DHT22;53780;44.998;9.926;2023-02-26T14:43:36;7.95;57.77
66871;DHT22;53780;44.998;9.926;2023-02-26T14:46:41;7.91;57.84
66871;DHT22;53780;44.998;9.926;2023-02-26T14:49:47;7.66;58.18
66871;DHT22;53780;44.998;9.926;2023-02-26T14:53:12;7.78;58.77
66871;DHT22;53780;44.998;9.926;2023-02-26T15:00:15;7.67;60.44
66871;DHT22;53780;44.998;9.926;2023-02-26T15:13:37;7.69;62.01
66871;DHT22;53780;44.998;9.926;2023-02-26T15:20:05;7.76;61.65
66871;DHT22;53780;44.998;9.926;2023-02-26T15:23:43;7.59;62.90
66871;DHT22;53780;44.998;9.926;2023-02-26T15:26:52;7.66;63.03
66871;DHT22;53780;44.998;9.926;2023-02-26T15:29:57;7.78;63.24
66871;DHT22;53780;44.998;9.926;2023-02-26T15:33:04;7.63;62.40
66871;DHT22;53780;44.998;9.926;2023-02-26T15:36:16;7.60;62.30
66871;DHT22;53780;44.998;9.926;2023-02-26T15:39:22;7.65;62.27
66871;DHT22;53780;44.998;9.926;2023-02-26T15:42:30;7.67;61.97
66871;DHT22;53780;44.998;9.926;2023-02-26T15:45:40;7.69;62.17
66871;DHT22;53780;44.998;9.926;2023-02-26T15:48:45;7.63;61.68
66871;DHT22;53780;44.998;9.926;2023-02-26T15:51:51;7.59;61.14
66871;DHT22;53780;44.998;9.926;2023-02-26T15:55:02;7.69;61.02
66871;DHT22;53780;44.998;9.926;2023-02-26T15:58:07;7.71;60.47
66871;DHT22;53780;44.998;9.926;2023-02-26T16:01:22;7.66;60.61
66871;DHT22;53780;44.998;9.926;2023-02-26T16:04:27;7.59;60.71
66871;DHT22;53780;44.998;9.926;2023-02-26T16:07:31;7.29;61.31
66871;DHT22;53780;44.998;9.926;2023-02-26T16:10:38;7.29;61.16
66871;DHT22;53780;44.998;9.926;2023-02-26T16:13:43;7.32;61.35
66871;DHT22;53780;44.998;9.926;2023-02-26T16:16:50;7.49;60.48
66871;DHT22;53780;44.998;9.926;2023-02-26T16:19:56;7.30;60.73
66871;DHT22;53780;44.998;9.926;2023-02-26T16:23:04;7.29;60.94
66871;DHT22;53780;44.998;9.926;2023-02-26T16:26:17;7.23;60.69
66871;DHT22;53780;44.998;9.926;2023-02-26T16:29:27;7.32;60.39
66871;DHT22;53780;44.998;9.926;2023-02-26T16:32:34;7.25;60.49
66871;DHT22;53780;44.998;9.926;2023-02-26T16:35:45;7.15;61.25
66871;DHT22;53780;44.998;9.926;2023-02-26T16:38:59;7.18;61.19
66871;DHT22;53780;44.998;9.926;2023-02-26T16:42:19;7.29;60.63
66871;DHT22;53780;44.998;9.926;2023-02-26T16:48:51;7.32;61.32
66871;DHT22;53780;44.998;9.926;2023-02-26T16:51:56;7.16;61.48
66871;DHT22;53780;44.998;9.926;2023-02-26T16:55:02;7.18;60.70
66871;DHT22;53780;44.998;9.926;2023-02-26T16:58:10;7.11;58.64
66871;DHT22;53780;44.998;9.926;2023-02-26T17:01:17;7.16;59.07
66871;DHT22;53780;44.998;9.926;2023-02-26T17:04:27;7.26;58.94
66871;DHT22;53780;44.998;9.926;2023-02-26T17:07:33;7.22;58.02
66871;DHT22;53780;44.998;9.926;2023-02-26T17:10:46;7.14;58.55
66871;DHT22;53780;44.998;9.926;2023-02-26T17:17:25;7.21;58.27
66871;DHT22;53780;44.998;9.926;2023-02-26T17:20:30;7.29;57.34
66871;DHT22;53780;44.998;9.926;2023-02-26T17:23:36;7.21;56.47
66871;DHT22;53780;44.998;9.926;2023-02-26T17:26:40;7.22;56.70
66871;DHT22;53780;44.998;9.926;2023-02-26T17:29:48;7.16;57.13
66871;DHT22;53780;44.998;9.926;2023-02-26T17:32:53;7.00;56.16
66871;DHT22;53780;44.998;9.926;2023-02-26T17:36:02;7.09;56.71
66871;DHT22;53780;44.998;9.926;2023-02-26T17:39:10;7.14;56.17
66871;DHT22;53780;44.998;9.926;2023-02-26T17:42:18;7.14;55.91
66871;DHT22;53780;44.998;9.926;2023-02-26T17:45:24;7.15;56.66
66871;DHT22;53780;44.998;9.926;2023-02-26T17:48:28;7.07;56.98
66871;DHT22;53780;44.998;9.926;2023-02-26T17:51:33;7.07;56.59
66871;DHT22;53780;44.998;9.926;2023-02-26T17:54:37;7.11;56.14
66871;DHT22;53780;44.998;9.926;2023-02-26T17:57:41;7.12;56.21
66871;DHT22;53780;44.998;9.926;2023-02-26T18:00:45;7.28;57.07
66871;DHT22;53780;44.998;9.926;2023-02-26T18:03:53;7.04;57.23
66871;DHT22;53780;44.998;9.926;2023-02-26T18:07:00;6.98;57.70
66871;DHT22;53780;44.998;9.926;2023-02-26T18:10:04;7.05;57.89
66871;DHT22;53780;44.998;9.926;2023-02-26T18:13:09;7.11;58.18
66871;DHT22;53780;44.998;9.926;2023-02-26T18:16:18;7.08;58.29
66871;DHT22;53780;44.998;9.926;2023-02-26T18:19:22;6.94;58.88
66871;DHT22;53780;44.998;9.926;2023-02-26T18:22:26;7.00;59.06
66871;DHT22;53780;44.998;9.926;2023-02-26T18:25:33;6.97;59.41
66871;DHT22;53780;44.998;9.926;2023-02-26T18:28:39;7.00;59.72
66871;DHT22;53780;44.998;9.926;2023-02-26T18:31:43;6.97;59.43
66871;DHT22;53780;44.998;9.926;2023-02-26T18:34:47;7.00;59.73
66871;DHT22;53780;44.998;9.926;2023-02-26T18:37:54;6.88;59.57
66871;DHT22;53780;44.998;9.926;2023-02-26T18:40:59;7.05;59.79
66871;DHT22;53780;44.998;9.926;2023-02-26T18:44:04;7.07;59.15
66871;DHT22;53780;44.998;9.926;2023-02-26T18:47:09;7.09;59.21
66871;DHT22;53780;44.998;9.926;2023-02-26T18:50:15;6.95;59.19
66871;DHT22;53780;44.998;9.926;2023-02-26T18:53:20;7.04;59.26
66871;DHT22;53780;44.998;9.926;2023-02-26T18:56:26;7.05;58.74
66871;DHT22;53780;44.998;9.926;2023-02-26T18:59:31;6.97;58.75
66871;DHT22;53780;44.998;9.926;2023-02-26T19:02:37;6.98;58.21
66871;DHT22;53780;44.998;9.926;2023-02-26T19:05:40;6.88;58.43
66871;DHT22;53780;44.998;9.926;2023-02-26T19:08:45;6.83;58.58
66871;DHT22;53780;44.998;9.926;2023-02-26T19:11:49;6.83;58.11
66871;DHT22;53780;44.998;9.926;2023-02-26T19:14:52;6.84;57.86
66871;DHT22;53780;44.998;9.926;2023-02-26T19:17:57;6.92;58.29
66871;DHT22;53780;44.998;9.926;2023-02-26T19:21:01;6.79;58.42
66871;DHT22;53780;44.998;9.926;2023-02-26T19:24:09;6.90;58.52
66871;DHT22;53780;44.998;9.926;2023-02-26T19:27:14;6.80;59.03
66871;DHT22;53780;44.998;9.926;2023-02-26T19:30:19;6.79;58.89
66871;DHT22;53780;44.998;9.926;2023-02-26T19:33:24;6.90;59.10
66871;DHT22;53780;44.998;9.926;2023-02-26T19:36:27;6.83;59.01
66871;DHT22;53780;44.998;9.926;2023-02-26T19:39:36;6.92;58.76
66871;DHT22;53780;44.998;9.926;2023-02-26T19:42:41;6.81;59.06
66871;DHT22;53780;44.998;9.926;2023-02-26T19:45:46;6.92;59.23
66871;DHT22;53780;44.998;9.926;2023-02-26T19:48:50;6.98;63.74
66871;DHT22;53780;44.998;9.926;2023-02-26T19:51:54;6.74;65.85
66871;DHT22;53780;44.998;9.926;2023-02-26T19:54:59;6.52;67.39
66871;DHT22;53780;44.998;9.926;2023-02-26T19:58:03;6.32;68.31
66871;DHT22;53780;44.998;9.926;2023-02-26T20:01:08;6.47;68.15
66871;DHT22;53780;44.998;9.926;2023-02-26T20:04:12;6.33;68.77
66871;DHT22;53780;44.998;9.926;2023-02-26T20:07:17;6.39;68.88
66871;DHT22;53780;44.998;9.926;2023-02-26T20:10:20;6.42;68.76
66871;DHT22;53780;44.998;9.926;2023-02-26T20:13:26;6.26;69.43
66871;DHT22;53780;44.998;9.926;2023-02-26T20:16:32;5.94;70.75
66871;DHT22;53780;44.998;9.926;2023-02-26T20:19:37;6.01;71.11
66871;DHT22;53780;44.998;9.926;2023-02-26T20:22:42;5.95;71.29
66871;DHT22;53780;44.998;9.926;2023-02-26T20:25:47;5.99;71.49
66871;DHT22;53780;44.998;9.926;2023-02-26T20:28:53;6.04;71.62
66871;DHT22;53780;44.998;9.926;2023-02-26T20:31:56;6.07;71.64
66871;DHT22;53780;44.998;9.926;2023-02-26T20:35:02;6.08;72.05
66871;DHT22;53780;44.998;9.926;2023-02-26T20:38:06;6.02;72.11
66871;DHT22;53780;44.998;9.926;2023-02-26T20:41:10;6.16;71.57
66871;DHT22;53780;44.998;9.926;2023-02-26T20:44:14;6.21;71.38
66871;DHT22;53780;44.998;9.926;2023-02-26T20:47:18;6.01;71.99
66871;DHT22;53780;44.998;9.926;2023-02-26T20:50:22;6.02;72.13
66871;DHT22;53780;44.998;9.926;2023-02-26T20:53:27;5.98;71.59
66871;DHT22;53780;44.998;9.926;2023-02-26T20:56:31;6.09;71.16
66871;DHT22;53780;44.998;9.926;2023-02-26T20:59:35;6.09;71.39
66871;DHT22;53780;44.998;9.926;2023-02-26T21:02:41;6.21;71.23
66871;DHT22;53780;44.998;9.926;2023-02-26T21:05:45;6.30;70.65
66871;DHT22;53780;44.998;9.926;2023-02-26T21:08:50;6.24;70.99
66871;DHT22;53780;44.998;9.926;2023-02-26T21:11:54;6.21;71.72
66871;DHT22;53780;44.998;9.926;2023-02-26T21:14:58;6.24;70.06
66871;DHT22;53780;44.998;9.926;2023-02-26T21:18:02;6.18;70.04
66871;DHT22;53780;44.998;9.926;2023-02-26T21:21:08;6.11;69.48
66871;DHT22;53780;44.998;9.926;2023-02-26T21:24:12;6.18;68.47
66871;DHT22;53780;44.998;9.926;2023-02-26T21:27:15;6.15;68.40
66871;DHT22;53780;44.998;9.926;2023-02-26T21:30:20;6.15;68.79
66871;DHT22;53780;44.998;9.926;2023-02-26T21:33:26;6.22;68.69
66871;DHT22;53780;44.998;9.926;2023-02-26T21:36:29;6.19;68.34
66871;DHT22;53780;44.998;9.926;2023-02-26T21:39:35;6.21;67.72
66871;DHT22;53780;44.998;9.926;2023-02-26T21:42:41;6.18;67.69
66871;DHT22;53780;44.998;9.926;2023-02-26T21:45:47;6.22;67.25
66871;DHT22;53780;44.998;9.926;2023-02-26T21:48:51;5.98;67.76
66871;DHT22;53780;44.998;9.926;2023-02-26T21:51:56;6.05;67.75
66871;DHT22;53780;44.998;9.926;2023-02-26T21:55:00;6.22;67.60
66871;DHT22;53780;44.998;9.926;2023-02-26T21:58:04;6.19;67.29
66871;DHT22;53780;44.998;9.926;2023-02-26T22:01:08;6.24;67.10
66871;DHT22;53780;44.998;9.926;2023-02-26T22:04:12;6.02;67.56
66871;DHT22;53780;44.998;9.926;2023-02-26T22:07:16;6.01;67.78
66871;DHT22;53780;44.998;9.926;2023-02-26T22:10:20;5.87;67.91
66871;DHT22;53780;44.998;9.926;2023-02-26T22:13:23;6.15;67.08
66871;DHT22;53780;44.998;9.926;2023-02-26T22:16:27;6.11;67.22
66871;DHT22;53780;44.998;9.926;2023-02-26T22:19:31;6.11;67.16
66871;DHT22;53780;44.998;9.926;2023-02-26T22:22:36;5.94;67.36
66871;DHT22;53780;44.998;9.926;2023-02-26T22:25:40;6.02;67.52
66871;DHT22;53780;44.998;9.926;2023-02-26T22:28:45;6.11;67.13